Time;durP1;ratioP1;P1;durP2;ratioP2;P2;SDS_P1;SDS_P2;PMS_P1;PMS_P2;Temp;Humidity;BMP_temperature;BMP_pressure;BME280_temperature;BME280_humidity;BME280_pressure;Samples;Min_cycle;Max_cycle;Signal;HPM_P1;HPM_P2
2023/10/06 00:01:21;;;;;;;4.03;2.47;;;;;;;10.59;100.00;99479.16;6105906;19;20458;-72
2023/10/06 00:03:21;;;;;;;4.03;2.38;;;;;;;10.55;100.00;99482.97;6107548;19;19999;-72
2023/10/06 00:05:23;;;;;;;6.85;2.38;;;;;;;10.49;100.00;99478.84;6106401;19;20024;-72
2023/10/06 00:07:24;;;;;;;5.20;2.77;;;;;;;10.42;100.00;99482.22;6114076;19;20324;-72
2023/10/06 00:09:30;;;;;;;6.28;2.58;;;;;;;10.31;100.00;99489.41;6110421;19;20275;-72
2023/10/06 00:11:33;;;;;;;8.43;2.88;;;;;;;10.21;100.00;99493.44;6108467;19;20328;-72
2023/10/06 00:13:35;;;;;;;4.80;2.50;;;;;;;10.19;100.00;99492.19;6111788;19;20002;-72
2023/10/06 00:15:38;;;;;;;5.97;2.47;;;;;;;10.11;100.00;99491.19;6112243;19;20010;-72
2023/10/06 00:17:48;;;;;;;4.95;2.70;;;;;;;10.10;100.00;99490.38;6112532;19;20017;-72
2023/10/06 00:19:55;;;;;;;3.63;2.20;;;;;;;10.05;100.00;99487.06;6111635;19;20006;-72
2023/10/06 00:22:29;;;;;;;5.35;2.40;;;;;;;10.02;100.00;99494.09;6109934;19;20015;-72
2023/10/06 00:24:25;;;;;;;5.75;2.50;;;;;;;10.03;100.00;99483.84;6007072;19;2005977;-72
2023/10/06 00:26:26;;;;;;;3.58;2.45;;;;;;;10.05;100.00;99492.56;6112274;19;20323;-72
2023/10/06 00:28:27;;;;;;;5.60;2.45;;;;;;;10.02;100.00;99483.03;6111741;19;20014;-72
2023/10/06 00:30:27;;;;;;;4.55;2.40;;;;;;;10.04;100.00;99485.44;6110678;19;20010;-72
2023/10/06 00:32:28;;;;;;;5.47;2.33;;;;;;;9.97;100.00;99479.69;6110951;19;20016;-71
2023/10/06 00:34:31;;;;;;;5.40;3.47;;;;;;;9.88;100.00;99474.31;6111764;19;20018;-72
2023/10/06 00:36:34;;;;;;;5.53;2.53;;;;;;;9.82;100.00;99479.25;6111830;19;20459;-72
2023/10/06 00:38:36;;;;;;;3.35;2.30;;;;;;;9.77;100.00;99476.75;6110280;19;20014;-72
2023/10/06 00:40:39;;;;;;;5.88;2.75;;;;;;;9.68;100.00;99465.03;6110748;19;20413;-72
2023/10/06 00:42:40;;;;;;;4.53;2.42;;;;;;;9.66;100.00;99483.09;6110937;19;20090;-72
2023/10/06 00:44:42;;;;;;;4.72;2.53;;;;;;;9.57;100.00;99470.22;6111258;19;20086;-72
2023/10/06 00:46:45;;;;;;;6.05;2.60;;;;;;;9.51;100.00;99474.34;6111307;19;20039;-72
2023/10/06 00:48:53;;;;;;;5.90;2.95;;;;;;;9.44;100.00;99479.69;6109725;19;20356;-72
2023/10/06 00:50:57;;;;;;;4.78;2.78;;;;;;;9.38;100.00;99478.28;6101568;19;20327;-72
2023/10/06 00:52:57;;;;;;;3.92;2.58;;;;;;;9.32;100.00;99473.34;6100145;19;20007;-72
2023/10/06 00:54:58;;;;;;;5.60;2.63;;;;;;;9.39;100.00;99479.09;6102904;19;20287;-72
2023/10/06 00:57:08;;;;;;;5.45;2.70;;;;;;;9.32;100.00;99478.84;6101882;19;20014;-72
2023/10/06 00:59:10;;;;;;;4.75;2.92;;;;;;;9.29;100.00;99478.41;6102712;19;20006;-72
2023/10/06 01:01:19;;;;;;;4.03;2.30;;;;;;;9.27;100.00;99489.00;6101445;19;20087;-72
2023/10/06 01:03:19;;;;;;;4.97;2.55;;;;;;;9.22;100.00;99478.16;6103257;19;20018;-72
2023/10/06 01:05:20;;;;;;;3.88;2.50;;;;;;;9.16;100.00;99484.25;6103813;19;20003;-72
2023/10/06 01:07:24;;;;;;;6.00;2.72;;;;;;;9.13;100.00;99485.75;6102849;19;20014;-72
2023/10/06 01:09:30;;;;;;;5.35;2.50;;;;;;;9.13;100.00;99480.25;6103499;19;20454;-72
2023/10/06 01:11:30;;;;;;;4.63;2.60;;;;;;;9.12;100.00;99484.16;6100684;19;20335;-72
2023/10/06 01:13:30;;;;;;;7.88;2.75;;;;;;;9.07;100.00;99486.31;6103317;19;20118;-72
2023/10/06 01:15:31;;;;;;;3.45;2.42;;;;;;;9.03;100.00;99486.22;6103199;19;20242;-72
2023/10/06 01:17:33;;;;;;;5.07;2.63;;;;;;;8.96;100.00;99488.72;6101328;19;20091;-72
2023/10/06 01:19:33;;;;;;;6.47;2.90;;;;;;;8.84;100.00;99486.75;6102424;19;20002;-72
2023/10/06 01:21:39;;;;;;;4.68;2.83;;;;;;;8.81;100.00;99486.63;6100882;19;20395;-72
2023/10/06 01:23:40;;;;;;;6.32;2.78;;;;;;;8.79;100.00;99477.91;6102162;19;20037;-71
2023/10/06 01:25:40;;;;;;;6.70;3.22;;;;;;;8.82;100.00;99471.69;6103107;19;20007;-72
2023/10/06 01:27:43;;;;;;;5.13;2.53;;;;;;;8.83;100.00;99465.81;6101953;19;20002;-72
2023/10/06 01:29:45;;;;;;;4.65;2.70;;;;;;;8.75;100.00;99458.44;6102109;19;20011;-72
2023/10/06 01:31:46;;;;;;;5.90;2.92;;;;;;;8.71;100.00;99454.78;6101014;19;20322;-72
2023/10/06 01:33:46;;;;;;;10.25;4.35;;;;;;;8.68;100.00;99466.47;6100336;19;20451;-72
2023/10/06 01:35:46;;;;;;;4.93;2.60;;;;;;;8.69;100.00;99462.59;6102667;19;20378;-72
2023/10/06 01:37:48;;;;;;;3.75;2.38;;;;;;;8.67;100.00;99465.66;6101358;19;20007;-72
2023/10/06 01:39:51;;;;;;;5.57;2.83;;;;;;;8.67;100.00;99462.91;6101051;19;20396;-72
2023/10/06 01:41:51;;;;;;;10.32;2.33;;;;;;;8.64;100.00;99460.03;6101102;19;20018;-72
2023/10/06 01:43:51;;;;;;;8.52;3.50;;;;;;;8.61;100.00;99457.97;6102449;19;20447;-72
2023/10/06 01:45:52;;;;;;;4.97;2.97;;;;;;;8.62;100.00;99463.13;6102585;19;20003;-72
2023/10/06 01:48:18;;;;;;;4.45;2.65;;;;;;;8.61;100.00;99452.44;6101328;19;20006;-72
2023/10/06 01:50:17;;;;;;;;;;;;;;;8.64;100.00;99444.28;6003633;19;2006581;-72
2023/10/06 01:52:19;;;;;;;6.53;3.90;;;;;;;8.56;100.00;99449.91;6108325;19;19942;-72
2023/10/06 01:54:25;;;;;;;9.90;3.78;;;;;;;8.46;100.00;99445.63;6109110;19;20010;-71
2023/10/06 01:56:26;;;;;;;5.05;3.33;;;;;;;8.38;100.00;99439.06;6109769;19;20007;-72
2023/10/06 01:58:27;;;;;;;5.85;3.40;;;;;;;8.29;100.00;99438.31;6108523;19;20002;-72
2023/10/06 02:00:31;;;;;;;6.13;3.35;;;;;;;8.24;100.00;99437.69;6109478;19;20017;-72
2023/10/06 02:02:31;;;;;;;7.53;3.20;;;;;;;8.26;100.00;99435.41;6107589;19;20003;-72
2023/10/06 02:04:40;;;;;;;8.68;5.18;;;;;;;8.20;100.00;99431.28;6109202;19;20026;-72
2023/10/06 02:06:51;;;;;;;7.07;3.22;;;;;;;8.14;100.00;99436.19;6107977;19;20240;-72
2023/10/06 02:08:54;;;;;;;6.60;3.55;;;;;;;8.12;100.00;99435.72;6108003;19;20007;-71
2023/10/06 02:10:55;;;;;;;9.95;3.42;;;;;;;8.05;100.00;99429.94;6105429;19;20011;-71
2023/10/06 02:12:55;;;;;;;10.95;2.85;;;;;;;8.06;100.00;99434.31;6108477;19;20022;-71
2023/10/06 02:14:56;;;;;;;7.80;3.45;;;;;;;8.00;100.00;99430.13;6108505;19;20594;-72
2023/10/06 02:16:56;;;;;;;5.45;3.33;;;;;;;7.87;100.00;99416.31;6106631;19;20022;-72
2023/10/06 02:18:57;;;;;;;8.20;3.33;;;;;;;7.83;100.00;99431.09;6108466;19;20006;-72
2023/10/06 02:21:01;;;;;;;4.38;2.83;;;;;;;7.79;100.00;99438.44;6106340;19;20006;-72
2023/10/06 02:23:03;;;;;;;8.00;3.40;;;;;;;7.74;100.00;99435.88;6108573;19;20007;-71
2023/10/06 02:25:06;;;;;;;8.13;3.80;;;;;;;7.64;100.00;99445.34;6108012;19;20007;-72
2023/10/06 02:27:10;;;;;;;6.35;3.55;;;;;;;7.64;100.00;99448.09;6109640;19;20332;-71
2023/10/06 02:29:22;;;;;;;7.10;4.03;;;;;;;7.67;100.00;99446.59;6105595;19;20003;-71
2023/10/06 02:31:23;;;;;;;6.60;3.50;;;;;;;7.61;100.00;99459.75;6107214;19;20011;-72
2023/10/06 02:33:24;;;;;;;5.25;3.22;;;;;;;7.60;100.00;99464.47;6108115;19;20370;-72
2023/10/06 02:35:24;;;;;;;8.93;3.70;;;;;;;7.56;100.00;99457.22;6107855;19;20014;-72
2023/10/06 02:37:25;;;;;;;5.10;3.40;;;;;;;7.52;100.00;99454.31;6108894;19;20013;-72
2023/10/06 02:39:28;;;;;;;8.50;3.60;;;;;;;7.52;100.00;99459.00;6107688;19;20074;-71
2023/10/06 02:41:29;;;;;;;6.18;3.40;;;;;;;7.54;100.00;99462.25;6107197;19;20006;-72
2023/10/06 02:43:31;;;;;;;8.38;3.63;;;;;;;7.52;100.00;99459.81;6107981;19;20006;-72
2023/10/06 02:45:40;;;;;;;3.45;2.80;;;;;;;7.48;100.00;99455.31;6108999;19;20002;-71
2023/10/06 02:47:40;;;;;;;7.65;3.47;;;;;;;7.55;100.00;99450.91;6108474;19;20034;-71
2023/10/06 02:49:47;;;;;;;5.85;3.08;;;;;;;7.58;100.00;99458.50;6106929;19;20006;-71
2023/10/06 02:51:48;;;;;;;6.82;3.38;;;;;;;7.62;100.00;99455.09;6105996;19;20003;-71
2023/10/06 02:53:50;;;;;;;6.35;3.30;;;;;;;7.56;100.00;99451.72;6108141;19;20480;-72
2023/10/06 02:55:59;;;;;;;7.03;3.20;;;;;;;7.55;100.00;99450.91;6108060;19;20035;-71
2023/10/06 02:58:00;;;;;;;8.32;4.03;;;;;;;7.46;100.00;99455.66;6107217;19;20535;-72
2023/10/06 03:00:28;;;;;;;7.32;3.75;;;;;;;7.37;100.00;99454.09;6107422;19;20327;-71
2023/10/06 03:02:25;;;;;;;6.85;3.72;;;;;;;7.25;100.00;99466.63;6004286;19;2005986;-71
2023/10/06 03:04:27;;;;;;;4.30;3.17;;;;;;;7.20;100.00;99458.56;6107929;19;20383;-71
2023/10/06 03:06:27;;;;;;;6.78;3.47;;;;;;;7.14;100.00;99459.88;6108158;19;20021;-72
2023/10/06 03:08:30;;;;;;;8.25;3.80;;;;;;;7.10;100.00;99467.19;6107955;19;20315;-71
2023/10/06 03:10:36;;;;;;;;;;;;;;;7.05;100.00;99467.38;6106173;19;20459;-71
2023/10/06 03:12:40;;;;;;;5.75;3.42;;;;;;;7.08;100.00;99461.22;6107641;19;19970;-71
2023/10/06 03:14:41;;;;;;;5.43;3.25;;;;;;;7.06;100.00;99455.22;6107094;19;20377;-71
2023/10/06 03:16:43;;;;;;;6.32;3.00;;;;;;;7.04;100.00;99461.06;6106929;19;20365;-71
2023/10/06 03:18:44;;;;;;;6.00;3.50;;;;;;;7.04;100.00;99455.56;6106355;19;20317;-71
2023/10/06 03:20:49;;;;;;;8.27;3.78;;;;;;;7.01;100.00;99456.22;6106105;19;20002;-72
2023/10/06 03:22:55;;;;;;;4.63;2.90;;;;;;;7.07;100.00;99464.28;6107815;19;20458;-71
2023/10/06 03:24:59;;;;;;;4.82;2.88;;;;;;;7.08;100.00;99463.16;6107090;19;20003;-71
2023/10/06 03:27:06;;;;;;;7.30;3.42;;;;;;;7.01;100.00;99456.22;6106490;19;20031;-71
2023/10/06 03:29:11;;;;;;;6.38;3.63;;;;;;;6.98;100.00;99453.31;6106541;19;20485;-71
2023/10/06 03:33:21;;;;;;;4.93;3.42;;;;;;;6.93;100.00;99443.31;6106722;19;20007;-71
2023/10/06 03:35:23;;;;;;;6.72;3.22;;;;;;;6.95;100.00;99446.56;6106391;19;20477;-71
2023/10/06 03:37:48;;;;;;;7.22;2.65;;;;;;;6.92;100.00;99449.13;6105324;19;20018;-71
2023/10/06 03:39:51;;;;;;;6.15;3.40;;;;;;;6.85;100.00;99448.84;6106784;19;20017;-71
2023/10/06 03:41:55;;;;;;;4.95;2.97;;;;;;;6.82;100.00;99453.06;6108702;19;20007;-71
2023/10/06 03:44:00;;;;;;;7.45;3.30;;;;;;;6.87;100.00;99441.06;6112206;19;20008;-71
2023/10/06 03:46:00;;;;;;;3.67;3.00;;;;;;;6.87;100.00;99444.66;6112022;19;20014;-71
2023/10/06 03:48:13;;;;;;;5.05;3.17;;;;;;;6.84;100.00;99444.47;6111497;19;20086;-71
2023/10/06 03:50:14;;;;;;;5.30;3.13;;;;;;;6.76;100.00;99449.69;6008652;19;2006372;-71
2023/10/06 03:52:16;;;;;;;5.25;3.42;;;;;;;6.79;100.00;99441.94;6111146;19;20010;-71
2023/10/06 03:54:16;;;;;;;6.20;3.33;;;;;;;6.74;100.00;99451.16;6112689;19;20346;-71
2023/10/06 03:56:16;;;;;;;6.70;4.40;;;;;;;6.75;100.00;99442.56;6111926;19;20558;-71
2023/10/06 03:58:18;;;;;;;6.07;3.53;;;;;;;6.72;100.00;99448.72;6112181;19;20513;-71
2023/10/06 04:00:19;;;;;;;8.93;3.50;;;;;;;6.66;100.00;99439.03;6111289;19;20029;-71
2023/10/06 04:02:24;;;;;;;12.85;4.25;;;;;;;6.63;100.00;99439.72;6109536;19;20014;-71
2023/10/06 04:04:26;;;;;;;7.22;3.88;;;;;;;6.57;100.00;99442.97;6111789;19;19999;-71
2023/10/06 04:06:27;;;;;;;6.75;4.25;;;;;;;6.53;100.00;99445.53;6113097;19;20014;-71
2023/10/06 04:08:27;;;;;;;7.95;3.80;;;;;;;6.54;100.00;99455.44;6111347;19;20002;-71
2023/10/06 04:10:27;;;;;;;5.20;3.60;;;;;;;6.47;100.00;99458.66;6109989;19;20221;-71
2023/10/06 04:12:28;;;;;;;6.05;3.63;;;;;;;6.47;100.00;99447.69;6111626;19;20102;-71
2023/10/06 04:14:31;;;;;;;6.50;3.83;;;;;;;6.49;100.00;99447.34;6111741;19;20017;-71
2023/10/06 04:16:41;;;;;;;6.38;3.50;;;;;;;6.45;100.00;99449.94;6110572;19;20433;-71
2023/10/06 04:18:47;;;;;;;6.90;3.67;;;;;;;6.44;100.00;99453.00;6111513;19;20091;-71
2023/10/06 04:20:52;;;;;;;5.25;3.65;;;;;;;6.44;100.00;99444.75;6108518;19;20002;-71
2023/10/06 04:22:52;;;;;;;9.50;3.50;;;;;;;6.39;100.00;99442.19;6111147;19;20014;-71
2023/10/06 04:24:52;;;;;;;5.47;3.95;;;;;;;6.37;100.00;99452.69;6111785;19;20380;-71
2023/10/06 04:26:53;;;;;;;7.28;3.30;;;;;;;6.35;100.00;99453.03;6109626;19;20481;-71
2023/10/06 04:28:57;;;;;;;8.65;3.55;;;;;;;6.29;100.00;99448.00;6111904;19;20003;-71
2023/10/06 04:31:01;;;;;;;5.63;3.08;;;;;;;6.27;100.00;99447.53;6108906;19;20035;-72
2023/10/06 04:33:04;;;;;;;6.93;3.25;;;;;;;6.29;100.00;99445.28;6111059;19;20432;-72
2023/10/06 04:35:04;;;;;;;5.50;3.88;;;;;;;6.27;100.00;99437.34;6108893;19;20089;-71
2023/10/06 04:37:07;;;;;;;8.20;3.47;;;;;;;6.30;100.00;99444.97;6110882;19;20411;-71
2023/10/06 04:39:11;;;;;;;4.60;3.03;;;;;;;6.33;100.00;99440.75;6109404;19;20023;-71
2023/10/06 04:41:11;;;;;;;6.88;3.78;;;;;;;6.28;100.00;99438.16;6108869;19;20086;-71
2023/10/06 04:43:17;;;;;;;7.20;3.63;;;;;;;6.29;100.00;99440.59;6109993;19;20023;-71
2023/10/06 04:45:18;;;;;;;6.60;3.63;;;;;;;6.28;100.00;99432.66;6109453;19;20003;-71
2023/10/06 04:47:18;;;;;;;6.70;3.70;;;;;;;6.24;100.00;99431.72;6110379;19;20081;-71
2023/10/06 04:49:18;;;;;;;4.97;3.25;;;;;;;6.25;100.00;99436.88;6098837;19;20370;-71
2023/10/06 04:51:19;;;;;;;8.52;4.03;;;;;;;6.19;100.00;99441.72;6109259;19;20106;-71
2023/10/06 04:53:19;;;;;;;7.18;3.88;;;;;;;6.11;100.00;99442.53;6107972;19;20093;-71
2023/10/06 04:55:19;;;;;;;5.35;4.07;;;;;;;6.07;100.00;99457.28;6108727;19;20011;-71
2023/10/06 04:57:20;;;;;;;5.00;3.40;;;;;;;6.10;100.00;99456.63;6108652;19;20371;-71
2023/10/06 04:59:20;;;;;;;9.45;3.90;;;;;;;6.12;100.00;99449.69;6109365;19;20030;-71
2023/10/06 05:01:20;;;;;;;6.75;3.03;;;;;;;6.12;100.00;99443.34;6108606;19;20003;-71
2023/10/06 05:03:21;;;;;;;9.23;3.90;;;;;;;6.16;100.00;99441.59;6110585;19;20106;-71
2023/10/06 05:05:22;;;;;;;6.25;3.70;;;;;;;6.18;100.00;99437.38;6109896;19;20009;-71
2023/10/06 05:07:24;;;;;;;7.68;3.30;;;;;;;6.15;100.00;99446.28;6110069;19;20450;-71
2023/10/06 05:09:25;;;;;;;7.00;4.07;;;;;;;6.07;100.00;99446.28;6108458;19;20261;-71
2023/10/06 05:11:25;;;;;;;6.90;3.45;;;;;;;6.01;100.00;99451.13;6106827;19;20037;-71
2023/10/06 05:13:26;;;;;;;5.50;3.38;;;;;;;5.99;100.00;99458.09;6110158;19;20013;-71
2023/10/06 05:15:27;;;;;;;7.95;3.33;;;;;;;5.99;100.00;99455.34;6108761;19;20006;-71
2023/10/06 05:17:27;;;;;;;6.55;3.47;;;;;;;5.90;100.00;99450.66;6109910;19;20012;-71
2023/10/06 05:19:27;;;;;;;7.82;4.00;;;;;;;5.85;100.00;99458.22;6109889;19;20121;-71
2023/10/06 05:21:28;;;;;;;11.23;3.50;;;;;;;5.89;100.00;99462.75;6108187;19;20576;-71
2023/10/06 05:23:28;;;;;;;5.57;3.47;;;;;;;5.93;100.00;99453.88;6109725;19;20006;-71
2023/10/06 05:25:31;;;;;;;7.78;3.97;;;;;;;5.94;100.00;99450.81;6110219;19;20511;-71
2023/10/06 05:27:34;;;;;;;8.00;3.97;;;;;;;6.01;100.00;99450.31;6109277;19;20541;-71
2023/10/06 05:29:36;;;;;;;12.40;4.35;;;;;;;5.99;100.00;99441.59;6109345;19;20018;-71
2023/10/06 05:31:36;;;;;;;5.68;4.53;;;;;;;6.05;100.00;99445.81;6106686;19;20007;-71
2023/10/06 05:33:36;;;;;;;7.03;4.47;;;;;;;6.02;100.00;99452.75;6109241;19;20389;-71
2023/10/06 05:35:41;;;;;;;10.75;4.93;;;;;;;6.01;100.00;99455.81;6108588;19;20450;-71
2023/10/06 05:37:43;;;;;;;7.32;4.38;;;;;;;5.98;100.00;99451.78;6110036;19;20007;-71
2023/10/06 05:39:46;;;;;;;8.57;3.80;;;;;;;6.00;100.00;99449.50;6107698;19;20006;-71
2023/10/06 05:41:47;;;;;;;8.43;3.83;;;;;;;6.00;100.00;99435.78;6106894;19;20003;-71
2023/10/06 05:43:48;;;;;;;10.15;4.07;;;;;;;6.09;100.00;99439.31;6106884;19;21413;-71
2023/10/06 05:45:52;;;;;;;5.68;4.45;;;;;;;6.10;100.00;99440.94;6107299;19;20010;-71
2023/10/06 05:47:54;;;;;;;9.20;3.97;;;;;;;6.19;100.00;99443.66;6106951;19;20459;-71
2023/10/06 05:49:55;;;;;;;;;;;;;;;6.17;100.00;99441.25;6103085;19;20026;-71
2023/10/06 05:51:55;;;;;;;8.15;4.07;;;;;;;6.15;100.00;99448.22;6098647;19;20591;-71
2023/10/06 05:53:56;;;;;;;8.90;4.68;;;;;;;6.09;100.00;99435.78;6101307;19;20115;-71
2023/10/06 05:55:58;;;;;;;10.98;5.43;;;;;;;6.07;100.00;99449.84;6101735;19;20475;-71
2023/10/06 05:58:00;;;;;;;11.35;4.95;;;;;;;6.09;100.00;99444.81;6101014;19;20401;-71
2023/10/06 06:00:01;;;;;;;8.75;4.70;;;;;;;6.16;100.00;99445.13;6102136;19;20010;-71
2023/10/06 06:02:02;;;;;;;8.48;5.60;;;;;;;6.19;100.00;99438.97;6100626;19;20481;-71
2023/10/06 06:04:09;;;;;;;9.82;5.30;;;;;;;6.19;100.00;99433.47;6100286;19;20352;-71
2023/10/06 06:06:09;;;;;;;8.57;4.43;;;;;;;6.14;100.00;99439.16;6100645;19;20011;-71
2023/10/06 06:08:10;;;;;;;7.70;4.60;;;;;;;6.10;100.00;99431.88;6101006;19;20006;-71
2023/10/06 06:10:13;;;;;;;10.48;5.07;;;;;;;6.10;100.00;99440.94;6099263;19;20003;-71
2023/10/06 06:12:13;;;;;;;10.45;6.00;;;;;;;6.11;100.00;99449.97;6099508;19;20006;-72
2023/10/06 06:14:13;;;;;;;7.88;5.65;;;;;;;6.07;100.00;99446.28;6100473;19;20058;-71
2023/10/06 06:16:15;;;;;;;11.35;6.03;;;;;;;6.15;100.00;99424.28;6101515;19;20015;-71
2023/10/06 06:18:15;;;;;;;12.02;6.97;;;;;;;6.23;100.00;99422.66;6101512;19;20006;-71
2023/10/06 06:20:18;;;;;;;11.15;6.97;;;;;;;6.34;100.00;99426.69;6100902;19;20017;-72
2023/10/06 06:22:19;;;;;;;17.58;9.25;;;;;;;6.40;100.00;99417.13;6101173;19;20052;-71
2023/10/06 06:24:22;;;;;;;14.55;8.50;;;;;;;6.42;100.00;99427.78;6101903;19;20512;-71
2023/10/06 06:26:22;;;;;;;18.02;9.32;;;;;;;6.44;100.00;99431.81;6102275;19;20015;-71
2023/10/06 06:28:22;;;;;;;11.77;8.07;;;;;;;6.45;100.00;99432.63;6102237;19;20011;-71
2023/10/06 06:30:24;;;;;;;12.52;8.77;;;;;;;6.48;100.00;99437.47;6100923;19;19999;-71
2023/10/06 06:32:25;;;;;;;10.82;6.80;;;;;;;6.51;100.00;99445.06;6100843;19;20098;-71
2023/10/06 06:34:27;;;;;;;8.32;6.07;;;;;;;6.56;100.00;99452.34;6101494;19;20007;-71
2023/10/06 06:36:31;;;;;;;11.15;7.15;;;;;;;6.59;100.00;99444.25;6101542;19;20002;-71
2023/10/06 06:38:39;;;;;;;13.38;5.55;;;;;;;6.67;100.00;99448.91;6101452;19;20006;-71
2023/10/06 06:40:39;;;;;;;13.20;6.32;;;;;;;6.80;100.00;99454.53;6099632;19;20463;-71
2023/10/06 06:42:42;;;;;;;9.98;5.85;;;;;;;6.87;100.00;99458.41;6100829;19;19998;-71
2023/10/06 06:44:47;;;;;;;16.58;6.05;;;;;;;6.93;100.00;99459.81;6102326;19;20007;-71
2023/10/06 06:46:48;;;;;;;7.70;5.10;;;;;;;7.01;100.00;99463.66;6101506;19;20312;-71
2023/10/06 06:48:49;;;;;;;14.05;6.93;;;;;;;7.06;100.00;99465.44;6099198;19;20342;-71
2023/10/06 06:50:49;;;;;;;16.00;10.90;;;;;;;7.11;100.00;99468.78;6105734;19;20032;-71
2023/10/06 06:52:54;;;;;;;14.23;9.73;;;;;;;7.19;100.00;99473.44;6107263;19;20330;-71
2023/10/06 06:54:55;;;;;;;12.30;9.25;;;;;;;7.27;100.00;99489.13;6107802;19;20341;-71
2023/10/06 06:56:56;;;;;;;10.10;6.78;;;;;;;7.35;100.00;99479.19;6106953;19;20007;-71
2023/10/06 06:58:56;;;;;;;10.18;6.53;;;;;;;7.42;100.00;99490.50;6107277;19;20412;-71
2023/10/06 07:00:57;;;;;;;11.13;7.22;;;;;;;7.48;100.00;99493.88;6107230;19;20006;-71
2023/10/06 07:02:58;;;;;;;9.20;6.50;;;;;;;7.58;100.00;99499.00;6107900;19;20056;-71
2023/10/06 07:04:59;;;;;;;9.02;5.57;;;;;;;7.67;100.00;99485.16;6107505;19;20006;-71
2023/10/06 07:07:01;;;;;;;8.63;5.50;;;;;;;7.76;100.00;99492.22;6108097;19;20074;-71
2023/10/06 07:09:02;;;;;;;7.20;4.78;;;;;;;7.83;100.00;99488.94;6108032;19;19999;-71
2023/10/06 07:11:06;;;;;;;8.13;4.95;;;;;;;7.95;100.00;99497.31;6103401;19;20014;-71
2023/10/06 07:13:07;;;;;;;8.27;5.10;;;;;;;8.04;100.00;99492.53;6107379;19;20007;-71
2023/10/06 07:15:17;;;;;;;6.97;4.45;;;;;;;8.12;100.00;99486.13;6106170;19;20343;-71
2023/10/06 07:17:18;;;;;;;8.80;5.22;;;;;;;8.22;100.00;99478.59;6106531;19;20019;-71
2023/10/06 07:19:19;;;;;;;7.30;5.10;;;;;;;8.32;100.00;99472.66;6106726;19;20463;-71
2023/10/06 07:21:19;;;;;;;6.50;4.45;;;;;;;8.38;100.00;99466.63;6106275;19;20011;-71
2023/10/06 07:23:19;;;;;;;7.72;4.40;;;;;;;8.48;100.00;99464.59;6107474;19;20024;-71
2023/10/06 07:25:23;;;;;;;12.52;4.85;;;;;;;8.60;100.00;99462.66;6106511;19;20023;-71
2023/10/06 07:27:24;;;;;;;8.90;4.78;;;;;;;8.71;100.00;99465.81;6107415;19;20006;-71
2023/10/06 07:29:24;;;;;;;7.72;4.47;;;;;;;8.81;100.00;99473.63;6107083;19;20010;-71
2023/10/06 07:31:27;;;;;;;9.13;4.93;;;;;;;8.92;100.00;99476.75;6105992;19;20002;-71
2023/10/06 07:33:28;;;;;;;22.55;5.20;;;;;;;9.06;100.00;99477.25;6107523;19;20009;-71
2023/10/06 07:35:36;;;;;;;12.73;5.63;;;;;;;9.19;100.00;99475.31;6107461;19;20002;-71
2023/10/06 07:37:44;;;;;;;9.40;5.22;;;;;;;9.32;100.00;99482.41;6107543;19;20044;-71
2023/10/06 07:39:46;;;;;;;10.55;5.20;;;;;;;9.52;100.00;99477.94;6106424;19;20308;-71
2023/10/06 07:41:47;;;;;;;5.32;4.30;;;;;;;9.68;100.00;99469.72;6105612;19;20006;-71
2023/10/06 07:43:48;;;;;;;6.85;3.75;;;;;;;9.79;100.00;99473.63;6106737;19;20026;-71
2023/10/06 07:45:49;;;;;;;6.47;2.63;;;;;;;9.91;100.00;99470.03;6106738;19;20010;-71
2023/10/06 07:47:49;;;;;;;5.13;2.20;;;;;;;10.06;100.00;99470.09;6106389;19;20827;-71
2023/10/06 07:49:50;;;;;;;6.22;2.38;;;;;;;10.20;100.00;99472.50;6106690;19;19994;-71
2023/10/06 07:51:50;;;;;;;4.43;2.72;;;;;;;10.32;100.00;99474.41;6105240;19;20010;-71
2023/10/06 07:53:50;;;;;;;6.28;2.53;;;;;;;10.44;100.00;99466.09;6106354;19;20321;-71
2023/10/06 07:55:51;;;;;;;5.80;2.25;;;;;;;10.62;100.00;99464.59;6106560;19;20032;-71
2023/10/06 07:57:51;;;;;;;6.80;2.58;;;;;;;10.83;100.00;99463.53;6106165;19;20009;-71
2023/10/06 07:59:51;;;;;;;8.05;2.38;;;;;;;11.00;100.00;99451.31;6106210;19;20074;-71
2023/10/06 08:01:53;;;;;;;5.25;2.30;;;;;;;11.04;100.00;99453.03;6105416;19;20003;-71
2023/10/06 08:03:53;;;;;;;5.53;2.42;;;;;;;11.12;100.00;99443.75;6105718;19;20030;-71
2023/10/06 08:05:55;;;;;;;5.38;2.20;;;;;;;11.16;100.00;99444.63;6106257;19;20011;-71
2023/10/06 08:07:58;;;;;;;5.10;2.42;;;;;;;11.22;100.00;99453.47;6107080;19;20006;-71
2023/10/06 08:09:59;;;;;;;12.27;2.55;;;;;;;11.34;100.00;99463.66;6102789;19;20006;-71
2023/10/06 08:11:59;;;;;;;2.78;2.00;;;;;;;11.46;100.00;99455.22;6104759;19;20070;-71
2023/10/06 08:14:00;;;;;;;4.90;2.00;;;;;;;11.54;100.00;99451.47;6105819;19;20020;-71
2023/10/06 08:16:01;;;;;;;4.50;2.00;;;;;;;11.65;100.00;99460.81;6105781;19;19998;-71
2023/10/06 08:18:02;;;;;;;6.40;2.58;;;;;;;11.73;100.00;99457.03;6105808;19;20034;-71
2023/10/06 08:20:05;;;;;;;4.45;2.20;;;;;;;11.81;100.00;99446.94;6105259;19;20002;-71
2023/10/06 08:22:06;;;;;;;2.72;1.70;;;;;;;11.93;100.00;99455.13;6104382;19;20038;-71
2023/10/06 08:24:07;;;;;;;3.55;1.65;;;;;;;12.03;100.00;99443.47;6105448;19;20682;-71
2023/10/06 08:26:08;;;;;;;7.70;2.15;;;;;;;12.09;100.00;99446.75;6105735;19;20015;-71
2023/10/06 08:28:08;;;;;;;5.47;2.78;;;;;;;12.16;100.00;99437.75;6107203;19;20011;-72
2023/10/06 08:30:16;;;;;;;6.07;2.05;;;;;;;12.28;100.00;99448.72;6110556;19;20014;-71
2023/10/06 08:32:17;;;;;;;4.70;2.47;;;;;;;12.40;100.00;99444.97;6110332;19;20019;-72
2023/10/06 08:34:21;;;;;;;3.80;2.30;;;;;;;12.44;100.00;99445.88;6111691;19;19998;-71
2023/10/06 08:36:21;;;;;;;5.90;3.35;;;;;;;12.54;100.00;99446.06;6111198;19;20101;-71
2023/10/06 08:38:24;;;;;;;4.13;2.25;;;;;;;12.65;100.00;99454.59;6109802;19;20010;-71
2023/10/06 08:40:26;;;;;;;8.25;2.35;;;;;;;12.71;100.00;99439.22;6111616;19;20013;-71
2023/10/06 08:42:27;;;;;;;6.20;2.40;;;;;;;12.81;100.00;99430.28;6111659;19;20335;-71
2023/10/06 08:44:27;;;;;;;2.25;1.50;;;;;;;12.98;100.00;99431.75;6111077;19;20455;-71
2023/10/06 08:46:31;;;;;;;5.07;1.85;;;;;;;13.02;100.00;99435.41;6111930;19;20003;-71
2023/10/06 08:48:33;;;;;;;4.90;1.70;;;;;;;13.06;100.00;99443.81;6111452;19;20021;-71
2023/10/06 08:50:33;;;;;;;5.75;1.75;;;;;;;13.12;100.00;99448.69;6111525;19;20014;-71
2023/10/06 08:52:35;;;;;;;3.92;1.75;;;;;;;13.17;100.00;99426.16;6109803;19;20457;-72
2023/10/06 08:54:37;;;;;;;4.88;2.03;;;;;;;13.18;100.00;99416.63;6111560;19;20010;-71
2023/10/06 08:56:39;;;;;;;5.03;1.80;;;;;;;13.23;100.00;99418.31;6110983;19;20006;-71
2023/10/06 08:58:39;;;;;;;3.55;1.63;;;;;;;13.32;100.00;99420.81;6111334;19;20224;-71
2023/10/06 09:00:43;;;;;;;5.93;2.22;;;;;;;13.34;100.00;99408.19;6109604;19;20348;-71
2023/10/06 09:02:48;;;;;;;5.25;2.08;;;;;;;13.45;100.00;99405.56;6111371;19;20462;-71
2023/10/06 09:04:48;;;;;;;5.55;2.10;;;;;;;13.54;100.00;99406.06;6111254;19;20011;-71
2023/10/06 09:07:08;;;;;;;6.63;1.77;;;;;;;13.58;100.00;99415.28;6109991;19;20003;-72
2023/10/06 09:09:26;;;;;;;6.60;2.00;;;;;;;13.72;100.00;99420.22;6110800;19;20017;-71
2023/10/06 09:11:39;;;;;;;6.85;1.70;;;;;;;13.80;100.00;99410.00;6107493;19;20011;-71
2023/10/06 09:13:40;;;;;;;4.25;2.22;;;;;;;13.93;100.00;99420.53;6110561;19;20010;-72
2023/10/06 09:15:40;;;;;;;5.63;2.35;;;;;;;14.00;100.00;99409.50;6110169;19;20458;-71
2023/10/06 09:17:40;;;;;;;6.00;2.22;;;;;;;14.07;100.00;99400.44;6110972;19;20013;-71
2023/10/06 09:19:49;;;;;;;4.28;1.60;;;;;;;14.14;100.00;99399.69;6109705;19;20070;-71
2023/10/06 09:22:04;;;;;;;5.53;1.75;;;;;;;14.16;100.00;99405.72;6108527;19;20005;-72
2023/10/06 09:24:19;;;;;;;6.93;2.22;;;;;;;14.16;100.00;99403.72;6109388;19;20574;-72
2023/10/06 09:26:29;;;;;;;5.00;2.40;;;;;;;14.19;100.00;99413.28;6110280;19;20285;-71
2023/10/06 09:28:31;;;;;;;4.78;2.70;;;;;;;14.32;100.00;99417.44;6111203;19;20466;-72
2023/10/06 09:31:08;;;;;;;8.67;2.13;;;;;;;14.39;100.00;99406.34;6110227;19;20010;-72
2023/10/06 09:33:11;;;;;;;4.57;2.00;;;;;;;14.48;100.00;99401.34;6110926;19;20007;-71
2023/10/06 09:35:21;;;;;;;5.75;2.88;;;;;;;14.58;100.00;99400.63;6110068;19;20053;-71
2023/10/06 09:37:22;;;;;;;6.75;3.15;;;;;;;14.67;100.00;99396.75;6109900;19;20070;-72
2023/10/06 09:39:32;;;;;;;5.53;2.25;;;;;;;14.75;100.00;99407.56;6108149;19;20037;-72